Terminal Aerodrome Forecast
Issued by NWS Blacksburg, VA

Current Version | Previous Version | Graphics & Text | Print | Product List | Glossary On
Versions: 1 2 3 4 5 6 7 8 9 10 11 12 13 14 15 16 17 18 19 20 21 22 23 24 25 26 27 28 29 30 31 32 33 34 35 36 37 38 39 40 41 42 43 44
000
FTUS41 KRNK 261532 AAA
TAFBLF
TAF AMD
KBLF 261532Z 2616/2712 VRB03KT P6SM BKN010 OVC025
     FM261800 26005KT P6SM SCT005 OVC015
      TEMPO 2621/2624 4SM -SHSN
     FM270400 29006KT 4SM BR BKN004 OVC012=

USA.gov is the U.S. government's official web portal to all federal, state and local government web resources and services.